首页
METAR-TAF:

METAR-TAF

机场 :

Benson, 英格兰

纬度: 51-37N, 经度: 001-05W, 海拔: 63米

当前天气观测

该预报发布于16分钟前的16:41 UTC
风速4节,风向南转西南
温度 14°C
湿度 94%
气压 997 hPa
能见度10公里或以上
少量云层高于2000英尺
散云层高于4000英尺
多云层高于4700英尺

METAR: EGUB 231641Z 20004KT 9999 FEW020 SCT040 BKN047 14/13 Q0997 TEMPO SCT015 RMK BLU TEMPO WHT

时间: 17:57 (16:57 UTC)

预报

该预报发布于3小时和18分钟前的13:39 UTC
预报有效从23日的 15点(UTC)到 23日的 22点(UTC)
风速10节,风向西南
能见度10公里或以上
散云层高于2000英尺
成为
从 23日的 15点(UTC)到 23日的 17点(UTC)
散云层高于3000英尺
短暂存在
从 23日的 15点(UTC)到 23日的 17点(UTC)
能見度: 7000
阵雨
几率 30% :
短暂存在
从 23日的 15点(UTC)到 23日的 17点(UTC)
多云层高于1000英尺
几率 30% :
短暂存在
从 23日的 18点(UTC)到 23日的 22点(UTC)
能見度: 4000
多云层高于1700英尺, 积雨云.
阵雨

TAF: EGUB 231339Z 2315/2322 23010KT 9999 SCT020 BECMG 2315/2317 SCT030 TEMPO 2315/2317 7000 SHRA PROB30 TEMPO 2315/2317 BKN010 PROB30 TEMPO 2318/2322 4000 SHRA BKN017CB

超过4000个机场的气象观测和天气预报(METAR&TAF报告)。

可查询的气象台以黄色和红色小点在地图上表示。

将鼠标移到小点上方,可查看气象台名称。

然后点击查看天气观测和预报。

如需切换地图:点击带黑十字的绿色按钮放大地图;点击带横线的绿色按钮缩小地图;或者点击绿色箭头查看邻近地区的地图。


METAR-TAF: